Accueil
METAR-TAF:

METAR-TAF

Aéroports :

Belize City, Belize

Aéroport international Philip S. W. Goldson

latitude: 17-32N, longitude: 088-18W, altitude: 5 m

Observation

Le bulletin a été fait il y a 14 minutes, à 12:00 UTC
Vent 4 kt de ouest/nord-ouest
Température 17°C
Humidité 94%
Pression 1021 hPa
Visibilité 10 km ou plus
Nuages fragmentés à une hauteur de 4700 ft

METAR: MZBZ 121200Z 29004KT 9999 BKN047 17/16 A3015 Q1021 NOSIG

Heure: 06:14 (12:14 UTC)

Prévision

Le bulletin a été fait il y a 1 heure et 44 minutes, à 10:30 UTC
Prévision valable du 12 à 12 UTC au 13 à 12 UTC
Vent 7 kt de nord-ouest
Visibilité 10 km ou plus
Quelques nuages à une hauteur de 2400 ft

TAF: MZBZ 121030Z 1212/1312 32007KT 9999 FEW024

Observations et prévisions météorologiques de plus de 4000 aéroports (messages METAR et TAF).

Les stations disponibles sont représentées par des disques jaunes et rouges sur la carte.

Passer la souris dessus pour voir le nom de la station.

Cliquer dessus pour voir les observations et prévisions météorologiques.

Pour changer de carte: cliquez sur les boutons verts avec une croix noire pour zoomer, sur le bouton vert avec un tiret pour effectuer un zoom arrière, ou sur les flèches vertes pour les cartes adjacentes.


METAR-TAF: